Frenchtown, Montana
Current Conditions -  °F | °C
As of 9:53 PM on Sunday 21 Dec 2014 (Local Time) from KMSO Reporting Station
Broken Clouds Broken Clouds  
Wind Chill: 32°   Ceiling: 11000
Heat Index: 39°   Visibility: 10mi
Dew Point: 29°   Wind: 12mph
Humidity: 67%   Direction: 320°NW
Pressure: 29.87"   Gusts: NA
Location:  47.01°N, 114.23°W
Report Text: KMSO 220453Z 32010KT 10SM FEW070 SCT085 BKN110 04/M02 A2987 RMK AO2 SLP135 T00391017 $
Loading
Personal Weather Stations






























Interactive Weather Map New forecast layout! Learn more

10-Day Weather Forecast

Advertisements
Track Severe Weather on mobile